Aérodrome :
LOGIN :

S'inscrire | Disclaimer

   EN    FR    IT 

 










Légende :    VFR   VFR Marginal   IFR   IFR Intensif   IFR Très Intensif
Visi : 
Plafond : 
>= 8 km
>= 3000ft
5 à 8 km
1000 à 3000 ft
1500m à 5 km
500 à 1000 ft
800 à 1500m
200 à 500 ft
< 800m
< 200 ft
Symboles :   Orages  Brouillard  Fortes neiges  Fortes précipitations  Vent > 20 kt
SIGMETs :   Divers  Orages  Givrage  Turbulence  Onde Orograph.  Cendres Volcan.







- Altitude de l'aérodrome : 622 ft
- Code IATA : BRS
- Voir les cartes d'approche


EGGD - Bristol Int.

DERNIER METAR :
  • 152120Z AUTO 17008KT 9999 NCD 08/06 Q1022

METARs EXPIRÉS :
  • 152050Z AUTO 19010KT 9999 NCD 08/05 Q1022
  • 152020Z AUTO 17008KT 9999 NCD 09/05 Q1022
  • 151950Z AUTO 15009KT 9999 NCD 08/05 Q1023
  • 151920Z AUTO 15009KT 9999 NCD 08/06 Q1023
  • 151850Z AUTO 16009KT 9999 NCD 09/06 Q1022

TAF TAF EGGD
Valide du 15 à 18h jusqu'au 16 à 18h UTC


151705Z 1518/1618 16008KT 9999 FEW035
BECMG 1600/1603 6000 BKN009
TEMPO 1600/1603 3000 -DZ BR BKN004
PROB30
TEMPO 1600/1603 BKN001
BECMG 1603/1606 23012KT
PROB30
TEMPO 1603/1608 2000 BR BKN003
TEMPO 1608/1614 9999 BKN012
BECMG 1614/1617 17009KT
TEMPO 1616/1618 3000 BR BKN004
PROB30
TEMPO 1616/1618 1200 -DZ BKN001
ATIS : +44 1275 473 666
Pas de NOTAMs connus pour ce terrain.
1 SIGMET publié pour la FIR London (EGTT) :
 
Onde orographique forte
EGTT SIGMET 01 VALID 151900/152300 EGRR
EGTT LONDON FIR SEV MTW FCST WI N5500 W00027 - N5429 W00019 - N5339 W00438 - N5500 W00504 - N5500 W00027 FL030/260 STNR NC=



MET'MAP, la Météo Aéronautique d'un coup d'oeil ! - Copyright ORBIFLY Décembre 2007 - Disclaimer

ORBIFLY MET'MAP TEAM :

Programmation & Développement : Alexandra Zaïnal
Conception & Développement : Baudouin d'Aumeries
Co-Programmation & Développement : Marc-Olivier Méhu
Soutien technique & logistique : Manuel Goepfert

Contact : metmap@orbifly.com




SOURCES & CREDITS :

   NOAA